Time;durP1;ratioP1;P1;durP2;ratioP2;P2;SDS_P1;SDS_P2;PMS_P1;PMS_P2;Temp;Humidity;BMP_temperature;BMP_pressure;BME280_temperature;BME280_humidity;BME280_pressure;Samples;Min_cycle;Max_cycle;Signal;HPM_P1;HPM_P2
2021/12/16 00:01:54;;;;;;;;;;;21.10;45.80;;;;;;5068867;28;20154;-60
2021/12/16 00:07:19;;;;;;;;;;;21.10;45.80;;;;;;5069381;28;19928;-56
2021/12/16 00:09:54;;;;;;;;;;;21.10;45.80;;;;;;5066825;28;19924;-59
2021/12/16 00:31:47;;;;;;;;;;;21.10;46.40;;;;;;5068709;28;19928;-57
2021/12/16 00:34:14;;;;;;;;;;;21.10;45.80;;;;;;5065523;28;19924;-64
2021/12/16 00:36:41;;;;;;;;;;;21.10;45.80;;;;;;5070022;28;19928;-61
2021/12/16 00:39:09;;;;;;;;;;;21.10;45.80;;;;;;5064681;28;19920;-56
2021/12/16 00:41:37;;;;;;;;;;;21.10;45.80;;;;;;5069697;28;20357;-54
2021/12/16 00:44:13;;;;;;;;;;;21.10;45.80;;;;;;5065800;28;19928;-60
2021/12/16 00:49:36;;;;;;;;;;;21.10;45.80;;;;;;5066861;28;20105;-56
2021/12/16 00:54:55;;;;;;;;;;;21.10;45.80;;;;;;5066283;28;19941;-57
2021/12/16 00:57:22;;;;;;;;;;;21.10;45.80;;;;;;5066573;28;20014;-54
2021/12/16 00:59:52;;;;;;;;;;;21.10;45.80;;;;;;5068846;28;19950;-60
2021/12/16 01:02:24;;;;;;;;;;;21.10;45.80;;;;;;5061273;28;20107;-57
2021/12/16 01:05:14;;;;;;;;;;;21.10;45.80;;;;;;5070485;28;19960;-61
2021/12/16 01:07:59;;;;;;;;;;;21.10;45.80;;;;;;5066615;28;19920;-59
2021/12/16 01:35:09;;;;;;;;;;;21.10;45.70;;;;;;5074795;28;19928;-62
2021/12/16 01:40:41;;;;;;;;;;;21.10;45.70;;;;;;5069215;28;19924;-56
2021/12/16 01:46:14;;;;;;;;;;;21.10;45.70;;;;;;5072969;28;19927;-60
2021/12/16 01:49:11;;;;;;;;;;;21.10;45.70;;;;;;5074637;28;19935;-57
2021/12/16 01:51:53;;;;;;;;;;;21.10;45.70;;;;;;5073603;28;20015;-57
2021/12/16 01:57:13;;;;;;;;;;;21.10;45.70;;;;;;5064260;28;19921;-58
2021/12/16 01:59:41;;;;;;;;;;;21.10;45.70;;;;;;5073289;28;19943;-57
2021/12/16 02:02:16;;;;;;;;;;;21.10;45.80;;;;;;5073779;28;19920;-65
2021/12/16 02:05:08;;;;;;;;;;;21.10;45.80;;;;;;5073681;28;19924;-62
2021/12/16 02:07:51;;;;;;;;;;;21.10;45.70;;;;;;5070629;28;19927;-57
2021/12/16 02:10:21;;;;;;;;;;;21.10;45.70;;;;;;5067750;28;19955;-60
2021/12/16 02:12:57;;;;;;;;;;;21.10;45.70;;;;;;5071877;28;19932;-54
2021/12/16 02:29:25;;;;;;;;;;;21.10;45.70;;;;;;5065448;28;19966;-58
2021/12/16 02:31:58;;;;;;;;;;;21.10;45.70;;;;;;5072626;28;19927;-59
2021/12/16 02:34:31;;;;;;;;;;;21.10;45.70;;;;;;5070482;28;19924;-61
2021/12/16 02:36:59;;;;;;;;;;;21.10;45.70;;;;;;5071067;28;20269;-59
2021/12/16 02:39:26;;;;;;;;;;;21.00;45.60;;;;;;5070775;28;20428;-58
2021/12/16 02:41:54;;;;;;;;;;;21.10;45.70;;;;;;5071426;28;19920;-63
2021/12/16 02:44:28;;;;;;;;;;;21.10;45.60;;;;;;5071661;28;19982;-56
2021/12/16 02:49:44;;;;;;;;;;;21.10;45.70;;;;;;5069377;28;19928;-57
2021/12/16 02:52:12;;;;;;;;;;;21.10;45.70;;;;;;5072318;28;19921;-59
2021/12/16 02:54:39;;;;;;;;;;;21.10;45.70;;;;;;5072490;28;19955;-58
2021/12/16 02:57:06;;;;;;;;;;;21.00;45.60;;;;;;5072070;28;19924;-61
2021/12/16 02:59:33;;;;;;;;;;;21.10;45.60;;;;;;5068073;28;19927;-57
2021/12/16 03:02:04;;;;;;;;;;;21.00;45.60;;;;;;5072902;28;19978;-58
2021/12/16 03:04:31;;;;;;;;;;;21.00;45.50;;;;;;5072698;28;20432;-56
2021/12/16 03:06:59;;;;;;;;;;;21.00;45.60;;;;;;5073466;28;19990;-57
2021/12/16 03:15:16;;;;;;;;;;;21.00;45.50;;;;;;5061802;28;19943;-58
2021/12/16 03:17:52;;;;;;;;;;;21.10;45.60;;;;;;5069712;28;20273;-60
2021/12/16 03:20:27;;;;;;;;;;;21.10;45.60;;;;;;5073704;28;19920;-59
2021/12/16 03:23:05;;;;;;;;;;;21.00;45.50;;;;;;5072195;28;19927;-56
2021/12/16 03:25:46;;;;;;;;;;;21.00;45.50;;;;;;5072632;28;19920;-57
2021/12/16 03:28:37;;;;;;;;;;;21.00;45.50;;;;;;5068008;28;20530;-60
2021/12/16 03:31:26;;;;;;;;;;;21.00;45.50;;;;;;5072425;28;19956;-55
2021/12/16 03:34:14;;;;;;;;;;;21.00;45.50;;;;;;5072212;28;19950;-56
2021/12/16 03:37:11;;;;;;;;;;;21.00;45.50;;;;;;5071207;28;20457;-57
2021/12/16 03:39:37;;;;;;;;;;;21.00;45.50;;;;;;5071936;28;19960;-56
2021/12/16 03:42:05;;;;;;;;;;;21.00;45.50;;;;;;5071605;28;19920;-57
2021/12/16 03:44:48;;;;;;;;;;;21.00;45.50;;;;;;5072902;28;19925;-60
2021/12/16 03:47:15;;;;;;;;;;;21.00;45.50;;;;;;5071025;28;19927;-60
2021/12/16 03:49:42;;;;;;;;;;;21.00;45.50;;;;;;5070598;28;19926;-59
2021/12/16 03:52:09;;;;;;;;;;;21.00;45.50;;;;;;5071557;28;20315;-56
2021/12/16 03:54:37;;;;;;;;;;;21.00;45.50;;;;;;5071379;28;19986;-57
2021/12/16 03:57:07;;;;;;;;;;;21.00;45.50;;;;;;5070837;28;20039;-56
2021/12/16 03:59:35;;;;;;;;;;;21.00;45.50;;;;;;5071986;28;19973;-57
2021/12/16 04:02:03;;;;;;;;;;;21.00;45.60;;;;;;5071388;28;19924;-60
2021/12/16 04:04:29;;;;;;;;;;;21.00;45.50;;;;;;5071364;28;20274;-56
2021/12/16 04:06:57;;;;;;;;;;;21.00;45.50;;;;;;5071534;28;19920;-58
2021/12/16 04:09:23;;;;;;;;;;;21.00;45.60;;;;;;5071067;28;20575;-57
2021/12/16 04:11:57;;;;;;;;;;;21.00;45.50;;;;;;5070716;28;19924;-59
2021/12/16 04:14:26;;;;;;;;;;;21.00;45.50;;;;;;5071029;28;19921;-56
2021/12/16 04:16:54;;;;;;;;;;;21.00;45.60;;;;;;5071008;28;19935;-57
2021/12/16 04:19:21;;;;;;;;;;;21.00;45.50;;;;;;5070180;28;19920;-56
2021/12/16 04:21:51;;;;;;;;;;;21.00;45.60;;;;;;5071005;28;19925;-59
2021/12/16 04:24:18;;;;;;;;;;;21.00;45.50;;;;;;5070489;28;19956;-55
2021/12/16 04:26:45;;;;;;;;;;;21.00;45.50;;;;;;5072018;28;19920;-59
2021/12/16 04:29:12;;;;;;;;;;;21.00;45.50;;;;;;5071790;28;20366;-54
2021/12/16 04:31:40;;;;;;;;;;;21.00;45.50;;;;;;5070799;28;20273;-61
2021/12/16 04:34:07;;;;;;;;;;;21.00;45.50;;;;;;5070019;28;19924;-57
2021/12/16 04:36:34;;;;;;;;;;;21.00;45.50;;;;;;5069924;28;19994;-56
2021/12/16 04:39:01;;;;;;;;;;;21.00;45.50;;;;;;5053543;28;20269;-60
2021/12/16 04:41:28;;;;;;;;;;;21.00;45.50;;;;;;5062258;28;20277;-56
2021/12/16 04:43:55;;;;;;;;;;;21.00;45.50;;;;;;5069679;28;19924;-59
2021/12/16 04:46:22;;;;;;;;;;;21.00;45.50;;;;;;5070172;28;20012;-53
2021/12/16 04:48:51;;;;;;;;;;;21.00;45.50;;;;;;5064785;28;19968;-56
2021/12/16 04:51:19;;;;;;;;;;;21.00;45.50;;;;;;5070217;28;20022;-62
2021/12/16 04:53:45;;;;;;;;;;;21.00;45.50;;;;;;5070100;28;19920;-59
2021/12/16 04:56:13;;;;;;;;;;;21.00;45.50;;;;;;5071526;28;19924;-57
2021/12/16 04:58:40;;;;;;;;;;;21.00;45.50;;;;;;5070087;28;19928;-56
2021/12/16 05:01:07;;;;;;;;;;;21.00;45.50;;;;;;5063116;28;19921;-55
2021/12/16 05:03:33;;;;;;;;;;;21.00;45.50;;;;;;5069994;28;19994;-59
2021/12/16 05:06:02;;;;;;;;;;;21.00;45.50;;;;;;5070230;28;20019;-59
2021/12/16 05:08:29;;;;;;;;;;;21.00;45.50;;;;;;5066501;28;19974;-56
2021/12/16 05:10:58;;;;;;;;;;;21.00;45.50;;;;;;5069739;28;19970;-65
2021/12/16 05:13:26;;;;;;;;;;;21.00;45.50;;;;;;5069864;28;19928;-58
2021/12/16 05:15:53;;;;;;;;;;;21.00;45.50;;;;;;5069952;28;19927;-62
2021/12/16 05:18:30;;;;;;;;;;;21.00;46.10;;;;;;5069507;28;20258;-57
2021/12/16 05:20:56;;;;;;;;;;;21.00;45.50;;;;;;5069609;28;19921;-59
2021/12/16 05:26:17;;;;;;;;;;;21.00;45.50;;;;;;5069449;28;19931;-60
2021/12/16 05:28:44;;;;;;;;;;;21.00;45.50;;;;;;5069467;28;19920;-57
2021/12/16 05:31:11;;;;;;;;;;;21.00;45.50;;;;;;5068409;28;20011;-56
2021/12/16 05:33:37;;;;;;;;;;;21.00;45.50;;;;;;5068779;28;20047;-62
2021/12/16 05:36:04;;;;;;;;;;;21.00;45.50;;;;;;5055645;28;19920;-58
2021/12/16 05:38:33;;;;;;;;;;;21.00;45.50;;;;;;5063973;28;19935;-58
2021/12/16 05:41:00;;;;;;;;;;;21.00;45.50;;;;;;5070025;28;20661;-52
2021/12/16 05:43:28;;;;;;;;;;;21.00;45.50;;;;;;5069483;28;20311;-61
2021/12/16 05:45:55;;;;;;;;;;;21.00;45.50;;;;;;5068915;28;19921;-61
2021/12/16 05:48:22;;;;;;;;;;;21.00;45.50;;;;;;5063015;28;20351;-60
2021/12/16 05:50:53;;;;;;;;;;;21.00;45.50;;;;;;5084996;28;20345;-54
2021/12/16 05:53:20;;;;;;;;;;;21.00;45.50;;;;;;5070799;28;20026;-60
2021/12/16 05:55:54;;;;;;;;;;;21.00;45.50;;;;;;5069533;28;19939;-66
2021/12/16 05:58:21;;;;;;;;;;;21.00;45.50;;;;;;5069306;28;19956;-56
2021/12/16 06:00:48;;;;;;;;;;;21.00;45.50;;;;;;5061051;28;20065;-53
2021/12/16 06:03:15;;;;;;;;;;;21.00;45.50;;;;;;5070606;28;19927;-54
2021/12/16 06:05:42;;;;;;;;;;;21.00;45.50;;;;;;5069345;28;20028;-54
2021/12/16 06:08:09;;;;;;;;;;;21.00;45.50;;;;;;5066916;28;19924;-62
2021/12/16 06:13:18;;;;;;;;;;;21.00;45.50;;;;;;5068869;28;19920;-51
2021/12/16 06:15:59;;;;;;;;;;;21.00;45.50;;;;;;5070143;28;20010;-52
2021/12/16 06:27:00;;;;;;;;;;;21.00;45.50;;;;;;4975844;28;20422;-54
2021/12/16 06:29:28;;;;;;;;;;;21.00;45.50;;;;;;5052393;28;19924;-51
2021/12/16 06:31:55;;;;;;;;;;;21.00;45.50;;;;;;5072721;28;20011;-54
2021/12/16 06:34:22;;;;;;;;;;;21.00;45.50;;;;;;5073397;28;20336;-56
2021/12/16 06:36:48;;;;;;;;;;;21.00;45.50;;;;;;5073202;28;19931;-56
2021/12/16 06:39:15;;;;;;;;;;;21.00;45.60;;;;;;5072969;28;20284;-54
2021/12/16 06:41:42;;;;;;;;;;;21.00;45.50;;;;;;5072350;28;20019;-59
2021/12/16 06:44:16;;;;;;;;;;;21.00;45.50;;;;;;5072986;28;19928;-56
2021/12/16 06:46:46;;;;;;;;;;;21.00;45.50;;;;;;5073034;28;20360;-56
2021/12/16 06:49:15;;;;;;;;;;;21.00;45.50;;;;;;5073122;28;19952;-55
2021/12/16 06:51:49;;;;;;;;;;;21.00;45.60;;;;;;5072380;28;20074;-53
2021/12/16 06:54:22;;;;;;;;;;;21.00;45.50;;;;;;5073340;28;19920;-52
2021/12/16 06:56:57;;;;;;;;;;;21.00;45.50;;;;;;5074176;28;20417;-55
2021/12/16 06:59:28;;;;;;;;;;;21.00;45.50;;;;;;5073073;28;19928;-51
2021/12/16 07:02:11;;;;;;;;;;;21.00;45.50;;;;;;5072870;28;20425;-56
2021/12/16 07:04:38;;;;;;;;;;;21.00;45.50;;;;;;5072428;28;20027;-57
2021/12/16 07:07:06;;;;;;;;;;;21.00;45.60;;;;;;5071220;28;19963;-57
2021/12/16 07:09:33;;;;;;;;;;;21.00;45.60;;;;;;5072994;28;20379;-57
2021/12/16 07:12:00;;;;;;;;;;;21.00;45.60;;;;;;5070017;28;20337;-60
2021/12/16 07:14:35;;;;;;;;;;;21.00;45.60;;;;;;5068727;28;19946;-58
2021/12/16 07:17:04;;;;;;;;;;;21.00;45.60;;;;;;5070938;28;19928;-59
2021/12/16 07:19:31;;;;;;;;;;;21.00;45.50;;;;;;5063253;28;20416;-57
2021/12/16 07:21:57;;;;;;;;;;;21.00;45.60;;;;;;5071476;28;19977;-57
2021/12/16 07:24:24;;;;;;;;;;;21.00;45.60;;;;;;5071821;28;20017;-55
2021/12/16 07:26:51;;;;;;;;;;;21.00;45.60;;;;;;5068772;28;19928;-58
2021/12/16 07:29:17;;;;;;;;;;;21.00;45.60;;;;;;5071293;28;19952;-54
2021/12/16 07:31:44;;;;;;;;;;;21.00;45.60;;;;;;5070858;28;20361;-56
2021/12/16 07:34:12;;;;;;;;;;;21.00;45.60;;;;;;5071229;28;19955;-55
2021/12/16 07:36:40;;;;;;;;;;;21.00;45.60;;;;;;5068559;28;19932;-58
2021/12/16 07:39:07;;;;;;;;;;;21.00;45.60;;;;;;5068491;28;20511;-61
2021/12/16 07:41:34;;;;;;;;;;;21.00;45.60;;;;;;5070948;28;20441;-56
2021/12/16 07:44:10;;;;;;;;;;;21.00;45.60;;;;;;5070591;28;19930;-54
2021/12/16 07:46:37;;;;;;;;;;;21.00;45.70;;;;;;5069766;28;19920;-57
2021/12/16 07:49:04;;;;;;;;;;;21.00;45.60;;;;;;5071817;28;20011;-63
2021/12/16 07:51:32;;;;;;;;;;;21.00;45.60;;;;;;5067127;28;19947;-54
2021/12/16 07:53:59;;;;;;;;;;;21.00;45.60;;;;;;5070759;28;19920;-57
2021/12/16 07:56:26;;;;;;;;;;;21.00;45.60;;;;;;5071297;28;19920;-57
2021/12/16 07:58:53;;;;;;;;;;;21.00;45.60;;;;;;5054090;28;19924;-57
2021/12/16 08:01:20;;;;;;;;;;;21.00;45.60;;;;;;5069609;28;19927;-54
2021/12/16 08:03:46;;;;;;;;;;;21.00;45.60;;;;;;5068510;28;19931;-59
2021/12/16 08:06:18;;;;;;;;;;;21.00;44.50;;;;;;5070974;28;20011;-59
2021/12/16 08:08:46;;;;;;;;;;;21.00;43.90;;;;;;5070317;28;19990;-60
2021/12/16 08:11:13;;;;;;;;;;;20.80;43.50;;;;;;5070346;28;19955;-60
2021/12/16 08:13:40;;;;;;;;;;;20.70;43.30;;;;;;5065612;28;19966;-61
2021/12/16 08:16:08;;;;;;;;;;;20.60;43.50;;;;;;5063503;28;20353;-60
2021/12/16 08:18:34;;;;;;;;;;;20.50;43.70;;;;;;5063284;28;19925;-61
2021/12/16 08:21:03;;;;;;;;;;;20.50;44.10;;;;;;5066146;28;19928;-59
2021/12/16 08:23:30;;;;;;;;;;;20.40;44.40;;;;;;5060545;28;20054;-55
2021/12/16 08:25:59;;;;;;;;;;;20.40;44.50;;;;;;5064254;28;20312;-55
2021/12/16 08:28:28;;;;;;;;;;;20.40;44.60;;;;;;5056802;28;20031;-55
2021/12/16 08:30:54;;;;;;;;;;;20.40;44.70;;;;;;5060734;28;19975;-54
2021/12/16 08:33:21;;;;;;;;;;;20.40;44.70;;;;;;5063755;28;19974;-52
2021/12/16 08:35:48;;;;;;;;;;;20.50;44.80;;;;;;5066796;28;19924;-57
2021/12/16 08:38:18;;;;;;;;;;;20.50;44.80;;;;;;5055747;28;20024;-55
2021/12/16 08:40:45;;;;;;;;;;;20.50;44.80;;;;;;5063385;28;19925;-56
2021/12/16 08:43:13;;;;;;;;;;;20.50;44.80;;;;;;5049160;28;19935;-56
2021/12/16 08:45:40;;;;;;;;;;;20.50;44.90;;;;;;5064940;28;19931;-53
2021/12/16 08:48:07;;;;;;;;;;;20.60;45.00;;;;;;5064884;28;19925;-56
2021/12/16 08:50:35;;;;;;;;;;;20.60;44.90;;;;;;5058278;28;20455;-62
2021/12/16 08:53:02;;;;;;;;;;;20.60;45.00;;;;;;5064837;28;19970;-58
2021/12/16 08:55:30;;;;;;;;;;;20.60;45.00;;;;;;5059259;28;20389;-59
2021/12/16 08:57:57;;;;;;;;;;;20.60;45.00;;;;;;5065175;28;20008;-66
2021/12/16 09:00:26;;;;;;;;;;;20.70;45.10;;;;;;5066187;28;20028;-60
2021/12/16 09:02:53;;;;;;;;;;;20.70;45.10;;;;;;5066326;28;19925;-60
2021/12/16 09:05:20;;;;;;;;;;;20.70;45.10;;;;;;5065086;28;19930;-58
2021/12/16 09:07:48;;;;;;;;;;;20.70;45.10;;;;;;5058284;28;19941;-61
2021/12/16 09:10:15;;;;;;;;;;;20.70;45.10;;;;;;5058986;28;20387;-52
2021/12/16 09:12:54;;;;;;;;;;;20.70;45.10;;;;;;5061492;28;19964;-56
2021/12/16 09:15:36;;;;;;;;;;;20.70;45.10;;;;;;5059846;28;20409;-56
2021/12/16 09:18:03;;;;;;;;;;;20.80;45.20;;;;;;5061753;28;20023;-59
2021/12/16 09:20:31;;;;;;;;;;;20.80;45.10;;;;;;5062687;28;19935;-56
2021/12/16 09:22:57;;;;;;;;;;;20.80;45.10;;;;;;5062481;28;19924;-55
2021/12/16 09:25:25;;;;;;;;;;;20.80;45.20;;;;;;5064637;28;19964;-61
2021/12/16 09:27:52;;;;;;;;;;;20.80;45.20;;;;;;5065067;28;19928;-57
2021/12/16 09:30:20;;;;;;;;;;;20.80;45.10;;;;;;5064498;28;19924;-56
2021/12/16 09:32:53;;;;;;;;;;;20.80;45.20;;;;;;5064461;28;19925;-55
2021/12/16 09:35:19;;;;;;;;;;;20.80;45.10;;;;;;5061189;28;20464;-56
2021/12/16 09:37:46;;;;;;;;;;;20.80;45.10;;;;;;5066380;28;19925;-61
2021/12/16 09:40:14;;;;;;;;;;;20.80;45.20;;;;;;5064552;28;19963;-54
2021/12/16 09:42:41;;;;;;;;;;;20.80;45.20;;;;;;5064642;28;19925;-52
2021/12/16 09:45:08;;;;;;;;;;;20.80;45.20;;;;;;5064053;28;19924;-57
2021/12/16 09:47:35;;;;;;;;;;;20.80;45.80;;;;;;5064616;28;19925;-57
2021/12/16 09:50:03;;;;;;;;;;;20.90;45.20;;;;;;5059780;28;20359;-60
2021/12/16 09:52:30;;;;;;;;;;;20.90;45.30;;;;;;5066195;28;20023;-55
2021/12/16 09:54:57;;;;;;;;;;;20.80;45.20;;;;;;5061340;28;19978;-59
2021/12/16 09:57:24;;;;;;;;;;;20.90;45.20;;;;;;5068709;28;20373;-58
2021/12/16 09:59:50;;;;;;;;;;;20.90;45.20;;;;;;5066914;28;19993;-56
2021/12/16 10:02:18;;;;;;;;;;;20.90;45.20;;;;;;5066798;28;19999;-62
2021/12/16 10:04:45;;;;;;;;;;;20.90;45.30;;;;;;5062708;28;19925;-59
2021/12/16 10:07:14;;;;;;;;;;;20.90;45.20;;;;;;5066979;28;19978;-57
2021/12/16 10:09:42;;;;;;;;;;;21.00;45.40;;;;;;5063935;28;20400;-61
2021/12/16 10:12:13;;;;;;;;;;;20.90;45.20;;;;;;5068068;28;20439;-59
2021/12/16 10:17:32;;;;;;;;;;;21.00;45.40;;;;;;5066123;28;19928;-61
2021/12/16 10:19:59;;;;;;;;;;;21.00;44.40;;;;;;5057528;28;19925;-63
2021/12/16 10:22:32;;;;;;;;;;;20.90;43.60;;;;;;5066968;28;20023;-62
2021/12/16 10:25:15;;;;;;;;;;;20.80;43.20;;;;;;5067085;28;19925;-64
2021/12/16 10:27:51;;;;;;;;;;;20.70;42.90;;;;;;5065791;28;19928;-60
2021/12/16 10:30:18;;;;;;;;;;;20.60;42.90;;;;;;5065419;28;19924;-60
2021/12/16 10:32:45;;;;;;;;;;;20.50;43.30;;;;;;5090131;28;19925;-59
2021/12/16 10:35:17;;;;;;;;;;;20.50;43.70;;;;;;5057216;28;19978;-59
2021/12/16 10:37:46;;;;;;;;;;;20.40;43.90;;;;;;5059790;28;19924;-55
2021/12/16 10:40:23;;;;;;;;;;;20.40;44.00;;;;;;5062314;28;20241;-57
2021/12/16 10:42:50;;;;;;;;;;;20.40;44.20;;;;;;5066449;28;20046;-54
2021/12/16 10:45:25;;;;;;;;;;;20.50;44.30;;;;;;5058190;28;20295;-60
2021/12/16 10:48:12;;;;;;;;;;;20.50;44.40;;;;;;5066210;28;20069;-57
2021/12/16 10:50:57;;;;;;;;;;;20.50;44.40;;;;;;5069180;28;19925;-60
2021/12/16 10:53:43;;;;;;;;;;;20.50;44.40;;;;;;5065772;28;20015;-62
2021/12/16 10:56:11;;;;;;;;;;;20.60;44.50;;;;;;5066818;28;20011;-59
2021/12/16 10:58:50;;;;;;;;;;;20.60;44.60;;;;;;5065572;28;19970;-61
2021/12/16 11:01:37;;;;;;;;;;;20.60;44.60;;;;;;5060994;28;19947;-58
2021/12/16 11:04:04;;;;;;;;;;;20.60;44.60;;;;;;5059980;28;19933;-56
2021/12/16 11:06:31;;;;;;;;;;;20.70;44.70;;;;;;5058950;28;20027;-60
2021/12/16 11:09:13;;;;;;;;;;;20.70;44.70;;;;;;5067282;28;19924;-57
2021/12/16 11:11:41;;;;;;;;;;;20.70;44.70;;;;;;5062954;28;19931;-57
2021/12/16 11:14:07;;;;;;;;;;;20.70;44.70;;;;;;5063240;28;19925;-60
2021/12/16 11:16:34;;;;;;;;;;;20.70;44.70;;;;;;5063250;28;20413;-62
2021/12/16 11:19:01;;;;;;;;;;;20.80;44.80;;;;;;5064701;28;20411;-60
2021/12/16 11:21:32;;;;;;;;;;;20.70;44.70;;;;;;5064927;28;20380;-57
2021/12/16 11:23:59;;;;;;;;;;;20.80;44.80;;;;;;5051178;28;19932;-61
2021/12/16 11:26:28;;;;;;;;;;;20.80;44.90;;;;;;5064640;28;20436;-61
2021/12/16 11:28:56;;;;;;;;;;;20.80;44.80;;;;;;5061563;28;19929;-63
2021/12/16 11:31:25;;;;;;;;;;;20.80;44.90;;;;;;5063025;28;19971;-61
2021/12/16 11:33:52;;;;;;;;;;;20.80;44.80;;;;;;5061429;28;19932;-61
2021/12/16 11:36:20;;;;;;;;;;;20.80;44.80;;;;;;5065997;28;20057;-60
2021/12/16 11:38:48;;;;;;;;;;;20.80;44.90;;;;;;5065478;28;20365;-58
2021/12/16 11:41:32;;;;;;;;;;;20.80;44.80;;;;;;5062788;28;19931;-58
2021/12/16 11:44:06;;;;;;;;;;;20.90;44.90;;;;;;5068023;28;19925;-63
2021/12/16 11:46:33;;;;;;;;;;;20.90;44.90;;;;;;5065909;28;19956;-62
2021/12/16 11:49:01;;;;;;;;;;;20.90;45.00;;;;;;5065716;28;19978;-64
2021/12/16 11:51:29;;;;;;;;;;;20.90;45.00;;;;;;5066473;28;19929;-60
2021/12/16 11:53:57;;;;;;;;;;;20.90;44.90;;;;;;5065281;28;20020;-55
2021/12/16 11:56:32;;;;;;;;;;;20.90;45.00;;;;;;5067600;28;19924;-54
2021/12/16 11:58:59;;;;;;;;;;;20.90;45.00;;;;;;5062343;28;19926;-61
2021/12/16 12:01:27;;;;;;;;;;;20.90;45.00;;;;;;5053365;28;20020;-63
2021/12/16 12:04:02;;;;;;;;;;;20.90;45.00;;;;;;5065688;28;20522;-62
2021/12/16 12:06:29;;;;;;;;;;;20.90;45.00;;;;;;5059768;28;20070;-61
2021/12/16 12:08:57;;;;;;;;;;;20.90;45.00;;;;;;5088689;28;20121;-61
2021/12/16 12:11:24;;;;;;;;;;;21.00;45.10;;;;;;5064006;28;19925;-61
2021/12/16 12:13:54;;;;;;;;;;;21.00;45.10;;;;;;5065500;28;20611;-61
2021/12/16 12:16:21;;;;;;;;;;;21.00;45.10;;;;;;5065494;28;19931;-64
2021/12/16 12:18:50;;;;;;;;;;;21.00;45.10;;;;;;5066706;28;19924;-61
2021/12/16 12:21:18;;;;;;;;;;;21.00;45.10;;;;;;5049541;28;19924;-61
2021/12/16 12:23:45;;;;;;;;;;;21.00;45.10;;;;;;5063443;28;19979;-62
2021/12/16 12:26:14;;;;;;;;;;;21.00;45.10;;;;;;5059879;28;19932;-62
2021/12/16 12:28:41;;;;;;;;;;;21.00;45.10;;;;;;5066892;28;19951;-61
2021/12/16 12:31:07;;;;;;;;;;;21.00;45.10;;;;;;5065971;28;19930;-61
2021/12/16 12:33:34;;;;;;;;;;;21.00;45.20;;;;;;5065460;28;19928;-61
2021/12/16 12:36:02;;;;;;;;;;;21.00;45.10;;;;;;5065976;28;19924;-63
2021/12/16 12:38:29;;;;;;;;;;;20.90;45.10;;;;;;5066767;28;20015;-61
2021/12/16 12:40:56;;;;;;;;;;;21.00;45.20;;;;;;5065508;28;19924;-59
2021/12/16 12:43:23;;;;;;;;;;;21.00;45.10;;;;;;5065711;28;19928;-58
2021/12/16 12:45:49;;;;;;;;;;;21.00;45.20;;;;;;5064737;28;20015;-57
2021/12/16 12:48:16;;;;;;;;;;;21.00;45.20;;;;;;5064982;28;19924;-63
2021/12/16 12:50:44;;;;;;;;;;;21.00;45.20;;;;;;5063305;28;20007;-58
2021/12/16 12:53:13;;;;;;;;;;;21.00;45.10;;;;;;5061479;28;19924;-56
2021/12/16 12:55:40;;;;;;;;;;;21.00;45.10;;;;;;5062968;28;19966;-59
2021/12/16 12:58:07;;;;;;;;;;;21.00;45.20;;;;;;5061349;28;19951;-53
2021/12/16 13:00:37;;;;;;;;;;;21.00;45.10;;;;;;5039446;28;22586;-57
2021/12/16 13:03:04;;;;;;;;;;;21.00;45.20;;;;;;5063115;28;19931;-58
2021/12/16 13:05:31;;;;;;;;;;;21.00;45.20;;;;;;5064023;28;20014;-58
2021/12/16 13:08:00;;;;;;;;;;;21.10;45.20;;;;;;5059834;28;19928;-60
2021/12/16 13:10:31;;;;;;;;;;;21.00;45.20;;;;;;5062880;28;19924;-60
2021/12/16 13:13:17;;;;;;;;;;;21.10;45.20;;;;;;5074528;28;20026;-63
2021/12/16 13:15:49;;;;;;;;;;;21.00;45.20;;;;;;5063914;28;20019;-61
2021/12/16 13:24:11;;;;;;;;;;;21.10;45.20;;;;;;5037169;28;19936;-57
2021/12/16 13:26:43;;;;;;;;;;;21.10;45.20;;;;;;5045782;28;19932;-56
2021/12/16 13:29:20;;;;;;;;;;;21.10;45.20;;;;;;5058972;28;19924;-59
2021/12/16 13:31:52;;;;;;;;;;;21.10;45.20;;;;;;5050243;28;19929;-61
2021/12/16 13:34:28;;;;;;;;;;;21.10;45.20;;;;;;5058774;28;19924;-60
2021/12/16 13:36:57;;;;;;;;;;;21.10;45.20;;;;;;5097583;28;19935;-61
2021/12/16 13:39:24;;;;;;;;;;;21.10;45.20;;;;;;5057192;28;19925;-57
2021/12/16 13:42:00;;;;;;;;;;;21.10;45.20;;;;;;5077080;28;19964;-59
2021/12/16 13:44:47;;;;;;;;;;;21.10;45.20;;;;;;5045308;28;19931;-58
2021/12/16 13:47:24;;;;;;;;;;;21.10;45.20;;;;;;5095774;28;19935;-60
2021/12/16 14:01:26;;;;;;;;;;;21.10;45.10;;;;;;5058002;28;20046;-60
2021/12/16 14:04:05;;;;;;;;;;;21.10;45.10;;;;;;5066843;28;19998;-57
2021/12/16 14:06:37;;;;;;;;;;;21.10;45.10;;;;;;5053986;28;19931;-60
2021/12/16 14:09:14;;;;;;;;;;;21.10;45.10;;;;;;5072903;28;20097;-60
2021/12/16 14:14:49;;;;;;;;;;;21.10;45.10;;;;;;5065303;28;20019;-60
2021/12/16 14:17:43;;;;;;;;;;;21.10;45.10;;;;;;5063046;28;20309;-66
2021/12/16 14:23:05;;;;;;;;;;;21.10;45.10;;;;;;5063643;28;19928;-59
2021/12/16 14:25:37;;;;;;;;;;;21.10;45.10;;;;;;5064143;28;19924;-63
2021/12/16 14:31:12;;;;;;;;;;;21.10;45.10;;;;;;5077870;28;20270;-55
2021/12/16 14:39:41;;;;;;;;;;;21.20;45.20;;;;;;5064572;28;19925;-62
2021/12/16 14:42:15;;;;;;;;;;;21.20;45.20;;;;;;5067283;28;20309;-59
2021/12/16 14:47:58;;;;;;;;;;;21.20;45.00;;;;;;5067491;28;19932;-57
2021/12/16 14:50:26;;;;;;;;;;;21.20;45.10;;;;;;5067729;28;19921;-60
2021/12/16 14:52:53;;;;;;;;;;;21.20;45.10;;;;;;5068963;28;20025;-61
2021/12/16 14:55:20;;;;;;;;;;;21.20;45.10;;;;;;5065083;28;20030;-59
2021/12/16 14:57:48;;;;;;;;;;;21.20;45.10;;;;;;5068631;28;19935;-60
2021/12/16 15:00:16;;;;;;;;;;;21.20;45.10;;;;;;5067908;28;19931;-59
2021/12/16 15:02:46;;;;;;;;;;;21.20;45.10;;;;;;5056768;28;19925;-55
2021/12/16 15:05:28;;;;;;;;;;;21.20;44.50;;;;;;5101355;28;20358;-64
2021/12/16 15:07:55;;;;;;;;;;;21.10;44.50;;;;;;5059312;28;19931;-61
2021/12/16 15:10:23;;;;;;;;;;;21.10;44.60;;;;;;5048917;28;20435;-61
2021/12/16 15:12:59;;;;;;;;;;;21.10;44.70;;;;;;5066993;28;19929;-58
2021/12/16 15:15:33;;;;;;;;;;;21.10;44.70;;;;;;5067868;28;19932;-60
2021/12/16 15:37:34;;;;;;;;;;;21.20;45.00;;;;;;5046622;28;19928;-61
2021/12/16 15:40:15;;;;;;;;;;;21.20;45.00;;;;;;5066637;28;19924;-59
2021/12/16 15:42:49;;;;;;;;;;;21.20;45.00;;;;;;5066337;28;20558;-57
2021/12/16 15:45:17;;;;;;;;;;;21.20;45.00;;;;;;5067246;28;19928;-62
2021/12/16 15:47:45;;;;;;;;;;;21.20;45.00;;;;;;5090671;28;19932;-59
2021/12/16 15:50:14;;;;;;;;;;;21.20;45.00;;;;;;5067335;28;19927;-55
2021/12/16 15:52:42;;;;;;;;;;;21.20;45.60;;;;;;5048310;28;19964;-62
2021/12/16 15:55:13;;;;;;;;;;;21.20;45.10;;;;;;5066381;28;20316;-61
2021/12/16 15:57:39;;;;;;;;;;;21.20;45.10;;;;;;5061389;28;19932;-57
2021/12/16 16:00:07;;;;;;;;;;;21.20;45.10;;;;;;5066838;28;20374;-55
2021/12/16 16:02:34;;;;;;;;;;;21.20;45.00;;;;;;5067015;28;19924;-59
2021/12/16 16:05:01;;;;;;;;;;;21.20;45.10;;;;;;5060121;28;20015;-65
2021/12/16 16:07:33;;;;;;;;;;;21.20;45.10;;;;;;5056082;28;19935;-53
2021/12/16 16:10:02;;;;;;;;;;;21.20;45.10;;;;;;5066365;28;20340;-58
2021/12/16 16:12:31;;;;;;;;;;;21.20;45.10;;;;;;5047898;28;19924;-59
2021/12/16 16:15:10;;;;;;;;;;;21.20;45.10;;;;;;5061710;28;19928;-62
2021/12/16 16:17:40;;;;;;;;;;;21.30;45.10;;;;;;5065889;28;19932;-59
2021/12/16 16:20:07;;;;;;;;;;;21.30;45.10;;;;;;5080580;28;19936;-60
2021/12/16 16:22:35;;;;;;;;;;;21.20;45.10;;;;;;5062922;28;19960;-58
2021/12/16 16:25:03;;;;;;;;;;;21.30;45.10;;;;;;5064371;28;20009;-60
2021/12/16 16:27:31;;;;;;;;;;;21.30;45.10;;;;;;5063536;28;20378;-64
2021/12/16 16:29:58;;;;;;;;;;;21.30;45.20;;;;;;5050887;28;20376;-60
2021/12/16 16:32:25;;;;;;;;;;;21.30;45.20;;;;;;5062530;28;19924;-59
2021/12/16 16:34:53;;;;;;;;;;;21.30;45.20;;;;;;5061452;28;19925;-60
2021/12/16 16:37:21;;;;;;;;;;;21.30;45.20;;;;;;5063336;28;20300;-63
2021/12/16 16:39:53;;;;;;;;;;;21.30;45.20;;;;;;5066696;28;20026;-63
2021/12/16 16:42:20;;;;;;;;;;;21.30;45.20;;;;;;5066656;28;19925;-64
2021/12/16 16:44:48;;;;;;;;;;;21.30;45.20;;;;;;5062032;28;19928;-61
2021/12/16 16:47:17;;;;;;;;;;;21.30;45.20;;;;;;5066707;28;20367;-60
2021/12/16 16:49:47;;;;;;;;;;;21.30;45.20;;;;;;5065418;28;20024;-64
2021/12/16 16:52:15;;;;;;;;;;;21.30;45.20;;;;;;5065164;28;19931;-63
2021/12/16 16:54:42;;;;;;;;;;;21.30;45.20;;;;;;5059259;28;19964;-65
2021/12/16 16:57:11;;;;;;;;;;;21.30;45.20;;;;;;5052610;28;19928;-63
2021/12/16 16:59:38;;;;;;;;;;;21.30;45.20;;;;;;5065048;28;20014;-61
2021/12/16 17:02:14;;;;;;;;;;;21.30;45.20;;;;;;5051932;28;20016;-60
2021/12/16 17:04:41;;;;;;;;;;;21.30;45.20;;;;;;5059622;28;20047;-62
2021/12/16 17:07:08;;;;;;;;;;;21.20;45.10;;;;;;5061608;28;19972;-67
2021/12/16 17:09:39;;;;;;;;;;;21.30;45.20;;;;;;5053316;28;19968;-61